Rome, Iowa
Current Conditions -  °F | °C
As of 6:55 AM on Thursday 27 Nov 2014 (Local Time) from KMPZ Reporting Station
Overcast Overcast  
Wind Chill:   Ceiling: 3000
Heat Index: 19°   Visibility: 10mi
Dew Point: 15°   Wind: 12mph
Humidity: 83%   Direction: 300°WNW
Pressure: 30.44"   Gusts: NA
Location:  40.98°N, 91.68°W
Report Text: KMPZ 271255Z AUTO 30010KT 10SM SCT014 OVC030 M07/M10 A3044 RMK AO2 T10731097
Loading
Personal Weather Stations






























Interactive Weather Map New forecast layout! Learn more

10-Day Weather Forecast

Advertisements
Track Severe Weather on mobile